Wetterdaten: Woche 23.05.16 - 29.05.16 (KW21)
Datum Zeit Auen-Temp. Temp gefhlt Luftfeuchte Luftdruck Regen Wind Richtung Sonnenschein Taupunkt Windben
23.05.2016 00:00 18,6 C 14,5 C 49 % 1012,9 hPa 0,0 mm 2,7 km/h (1 Bft) W 0,00 h 7,7 C 4,4 km/h (1 Bft)
23.05.2016 01:00 18,6 C 13,2 C 49 % 1013,1 hPa 0,0 mm 0,3 km/h (0 Bft) N 0,00 h 7,7 C 0,0 km/h (0 Bft)
23.05.2016 02:00 9,3 C 13,2 C 25 % 1012,7 hPa 0,0 mm 0,1 km/h (0 Bft) N 0,00 h -26,2 C 0,0 km/h (0 Bft)
23.05.2016 03:00 0,0 C 12,5 C 0 % 1012,7 hPa 0,0 mm 3,6 km/h (1 Bft) NW 0,00 h -60,0 C 4,7 km/h (1 Bft)
23.05.2016 04:00 0,0 C 11,8 C 0 % 1012,3 hPa 0,0 mm 1,4 km/h (1 Bft) W-NW 0,00 h -60,0 C 1,4 km/h (1 Bft)
23.05.2016 05:00 0,0 C 11,4 C 0 % 1011,8 hPa 0,0 mm 0,0 km/h (0 Bft) N 0,00 h -60,0 C 0,0 km/h (0 Bft)
23.05.2016 06:00 0,0 C 11,3 C 0 % 1011,6 hPa 0,0 mm 0,0 km/h (0 Bft) N 0,00 h -60,0 C 0,0 km/h (0 Bft)
23.05.2016 07:00 0,0 C 11,6 C 0 % 1011,5 hPa 0,0 mm 0,0 km/h (0 Bft) N 0,00 h -60,0 C 0,0 km/h (0 Bft)
23.05.2016 08:00 3,1 C 10,7 C 23 % 1011,6 hPa 0,7 mm 0,6 km/h (0 Bft) W-SW 0,00 h -39,8 C 1,7 km/h (1 Bft)
23.05.2016 09:00 9,3 C 9,0 C 77 % 1011,7 hPa 2,1 mm 3,1 km/h (1 Bft) W-SW 0,00 h 5,6 C 5,6 km/h (1 Bft)
23.05.2016 10:00 7,3 C 6,8 C 80 % 1012,3 hPa 0,7 mm 10,3 km/h (2 Bft) W-SW 0,00 h 4,1 C 19,5 km/h (3 Bft)
23.05.2016 11:00 5,9 C 5,3 C 81 % 1012,8 hPa 0,7 mm 12,7 km/h (3 Bft) W 0,00 h 2,9 C 18,6 km/h (3 Bft)
23.05.2016 12:00 5,6 C 5,5 C 82 % 1013,3 hPa 0,7 mm 9,3 km/h (2 Bft) W-SW 0,00 h 2,8 C 12,7 km/h (3 Bft)
23.05.2016 13:00 5,2 C 5,1 C 82 % 1013,7 hPa 1,4 mm 6,8 km/h (2 Bft) S 0,00 h 2,4 C 11,8 km/h (2 Bft)
23.05.2016 14:00 5,6 C 5,6 C 83 % 1013,7 hPa 0,7 mm 7,0 km/h (2 Bft) NW 0,00 h 3,0 C 10,0 km/h (2 Bft)
23.05.2016 15:00 5,8 C 5,8 C 82 % 1014,0 hPa 1,4 mm 5,7 km/h (1 Bft) W-SW 0,00 h 2,9 C 8,1 km/h (2 Bft)
23.05.2016 16:00 5,7 C 5,7 C 83 % 1013,9 hPa 0,7 mm 6,0 km/h (2 Bft) S 0,00 h 3,0 C 8,6 km/h (2 Bft)
23.05.2016 17:00 5,5 C 5,4 C 83 % 1013,7 hPa 0,7 mm 6,0 km/h (2 Bft) S-SO 0,00 h 2,8 C 8,6 km/h (2 Bft)
23.05.2016 18:00 5,3 C 5,1 C 83 % 1013,3 hPa 0,7 mm 4,8 km/h (1 Bft) W-SW 0,00 h 2,6 C 6,3 km/h (2 Bft)
23.05.2016 19:00 5,2 C 5,0 C 83 % 1013,5 hPa 0,7 mm 4,0 km/h (1 Bft) S 0,00 h 2,6 C 5,1 km/h (1 Bft)
23.05.2016 20:00 5,0 C 4,7 C 83 % 1013,9 hPa 0,7 mm 4,8 km/h (1 Bft) SW 0,00 h 2,5 C 6,6 km/h (2 Bft)
23.05.2016 21:00 4,9 C 4,6 C 84 % 1013,8 hPa 0,7 mm 3,2 km/h (1 Bft) SW 0,00 h 2,5 C 4,0 km/h (1 Bft)
23.05.2016 22:00 5,0 C 4,8 C 84 % 1013,8 hPa 1,4 mm 2,7 km/h (1 Bft) SW 0,00 h 2,6 C 1,3 km/h (1 Bft)
23.05.2016 23:00 5,1 C 4,9 C 85 % 1013,7 hPa 0,7 mm 4,3 km/h (1 Bft) W-SW 0,00 h 2,8 C 4,4 km/h (1 Bft)
24.05.2016 00:00 5,2 C 4,8 C 85 % 1013,4 hPa 0,7 mm 6,4 km/h (2 Bft) S 0,00 h 2,9 C 10,3 km/h (2 Bft)
24.05.2016 01:00 5,4 C 4,7 C 85 % 1012,9 hPa 0,7 mm 8,7 km/h (2 Bft) W 0,00 h 3,0 C 12,7 km/h (3 Bft)
24.05.2016 02:00 5,6 C 5,2 C 84 % 1012,7 hPa 0,7 mm 6,1 km/h (2 Bft) SW 0,00 h 3,1 C 10,5 km/h (2 Bft)
24.05.2016 03:00 5,6 C 5,4 C 84 % 1012,4 hPa 0,7 mm 3,8 km/h (1 Bft) S 0,00 h 3,2 C 5,1 km/h (1 Bft)
24.05.2016 04:00 5,7 C 5,5 C 85 % 1012,7 hPa 1,4 mm 2,1 km/h (1 Bft) W 0,00 h 3,4 C 2,6 km/h (1 Bft)
24.05.2016 05:00 5,8 C 5,6 C 85 % 1012,8 hPa 2,7 mm 1,7 km/h (1 Bft) O 0,00 h 3,5 C 3,4 km/h (1 Bft)
24.05.2016 06:00 5,9 C 5,7 C 86 % 1013,2 hPa 3,4 mm 3,5 km/h (1 Bft) W-SW 0,00 h 3,7 C 3,6 km/h (1 Bft)
24.05.2016 07:00 6,1 C 6,0 C 85 % 1013,3 hPa 1,4 mm 3,3 km/h (1 Bft) S 0,00 h 3,9 C 5,1 km/h (1 Bft)
24.05.2016 08:00 6,6 C 6,5 C 86 % 1013,3 hPa 1,4 mm 4,7 km/h (1 Bft) W-SW 0,00 h 4,4 C 6,2 km/h (2 Bft)
24.05.2016 09:00 6,9 C 6,9 C 85 % 1013,7 hPa 1,4 mm 5,4 km/h (1 Bft) W 0,00 h 4,5 C 9,2 km/h (2 Bft)
24.05.2016 10:00 7,4 C 7,6 C 85 % 1013,9 hPa 0,7 mm 4,2 km/h (1 Bft) W 0,00 h 5,1 C 5,8 km/h (2 Bft)
24.05.2016 11:00 7,9 C 8,2 C 85 % 1014,3 hPa 0,0 mm 5,2 km/h (1 Bft) W 0,00 h 5,5 C 7,6 km/h (2 Bft)
24.05.2016 12:00 8,5 C 9,2 C 83 % 1014,5 hPa 0,0 mm 4,2 km/h (1 Bft) W-SW 0,00 h 5,8 C 6,2 km/h (2 Bft)
24.05.2016 13:00 8,9 C 9,8 C 82 % 1014,7 hPa 0,0 mm 2,0 km/h (1 Bft) W 0,00 h 6,0 C 2,4 km/h (1 Bft)
24.05.2016 14:00 9,5 C 11,0 C 81 % 1014,4 hPa 0,0 mm 3,5 km/h (1 Bft) S 0,00 h 6,3 C 7,4 km/h (2 Bft)
24.05.2016 15:00 10,0 C 11,8 C 78 % 1014,6 hPa 0,0 mm 5,9 km/h (2 Bft) W 0,00 h 6,4 C 7,4 km/h (2 Bft)
24.05.2016 16:00 10,2 C 11,4 C 77 % 1014,7 hPa 0,0 mm 7,3 km/h (2 Bft) W-NW 0,00 h 6,2 C 8,1 km/h (2 Bft)
24.05.2016 17:00 10,2 C 11,4 C 77 % 1014,4 hPa 0,0 mm 4,1 km/h (1 Bft) W 0,00 h 6,3 C 5,6 km/h (1 Bft)
24.05.2016 18:00 10,1 C 11,0 C 76 % 1014,6 hPa 0,0 mm 2,6 km/h (1 Bft) S 0,00 h 6,0 C 1,8 km/h (1 Bft)
24.05.2016 19:00 10,0 C 10,4 C 75 % 1014,8 hPa 0,0 mm 1,2 km/h (1 Bft) S-SW 0,00 h 5,8 C 1,4 km/h (1 Bft)
24.05.2016 20:00 9,2 C 9,1 C 77 % 1014,8 hPa 0,0 mm 0,3 km/h (0 Bft) N 0,00 h 5,4 C 0,8 km/h (0 Bft)
24.05.2016 21:00 8,5 C 8,4 C 79 % 1015,0 hPa 0,0 mm 0,0 km/h (0 Bft) N 0,00 h 5,1 C 0,0 km/h (0 Bft)
24.05.2016 22:00 7,9 C 7,8 C 83 % 1014,9 hPa 0,0 mm 0,0 km/h (0 Bft) N 0,00 h 5,2 C 0,0 km/h (0 Bft)
24.05.2016 23:00 7,7 C 7,6 C 84 % 1014,8 hPa 0,0 mm 0,0 km/h (0 Bft) N 0,00 h 5,2 C 0,0 km/h (0 Bft)
25.05.2016 00:00 7,4 C 7,2 C 84 % 1014,4 hPa 0,0 mm 0,0 km/h (0 Bft) N 0,00 h 4,9 C 0,0 km/h (0 Bft)
25.05.2016 01:00 6,7 C 6,4 C 85 % 1014,2 hPa 0,0 mm 0,0 km/h (0 Bft) N 0,00 h 4,4 C 0,0 km/h (0 Bft)
25.05.2016 02:00 5,9 C 5,8 C 86 % 1014,3 hPa 0,0 mm 0,0 km/h (0 Bft) N 0,00 h 3,8 C 0,0 km/h (0 Bft)
25.05.2016 03:00 6,4 C 6,4 C 86 % 1014,1 hPa 0,0 mm 0,0 km/h (0 Bft) N 0,00 h 4,2 C 0,0 km/h (0 Bft)
25.05.2016 04:00 6,7 C 6,7 C 87 % 1014,0 hPa 0,0 mm 0,0 km/h (0 Bft) N 0,00 h 4,7 C 0,0 km/h (0 Bft)
25.05.2016 05:00 6,8 C 6,8 C 87 % 1013,8 hPa 0,0 mm 0,0 km/h (0 Bft) N 0,00 h 4,8 C 0,0 km/h (0 Bft)
25.05.2016 06:00 7,2 C 7,5 C 87 % 1013,9 hPa 0,0 mm 0,0 km/h (0 Bft) N 0,00 h 5,2 C 0,0 km/h (0 Bft)
25.05.2016 07:00 8,9 C 11,1 C 85 % 1014,0 hPa 0,0 mm 0,9 km/h (0 Bft) NO 0,33 h 6,5 C 2,3 km/h (1 Bft)
25.05.2016 08:00 9,7 C 11,9 C 81 % 1014,2 hPa 0,0 mm 4,0 km/h (1 Bft) NO 0,17 h 6,5 C 5,7 km/h (1 Bft)
25.05.2016 09:00 11,3 C 15,5 C 75 % 1014,5 hPa 0,0 mm 3,6 km/h (1 Bft) O-NO 1,00 h 7,1 C 4,1 km/h (1 Bft)
25.05.2016 10:00 13,0 C 17,9 C 71 % 1015,1 hPa 0,0 mm 3,1 km/h (1 Bft) N-NO 1,00 h 7,8 C 4,7 km/h (1 Bft)
25.05.2016 11:00 15,3 C 21,0 C 65 % 1015,9 hPa 0,0 mm 4,7 km/h (1 Bft) W-NW 1,00 h 8,8 C 7,0 km/h (2 Bft)
25.05.2016 12:00 17,1 C 23,1 C 59 % 1016,4 hPa 0,0 mm 4,2 km/h (1 Bft) NO 1,00 h 9,1 C 4,1 km/h (1 Bft)
25.05.2016 13:00 18,4 C 24,2 C 58 % 1016,0 hPa 0,0 mm 5,5 km/h (1 Bft) N-NO 1,00 h 9,9 C 8,4 km/h (2 Bft)
25.05.2016 14:00 19,1 C 24,7 C 54 % 1015,3 hPa 0,0 mm 6,9 km/h (2 Bft) O-NO 1,00 h 9,6 C 9,3 km/h (2 Bft)
25.05.2016 15:00 19,5 C 24,7 C 49 % 1014,9 hPa 0,0 mm 9,3 km/h (2 Bft) NW 1,00 h 8,3 C 13,1 km/h (3 Bft)
25.05.2016 16:00 18,8 C 23,7 C 52 % 1014,8 hPa 0,0 mm 9,2 km/h (2 Bft) NW 0,92 h 8,8 C 12,0 km/h (2 Bft)
25.05.2016 17:00 18,6 C 20,9 C 54 % 1014,8 hPa 0,0 mm 8,7 km/h (2 Bft) N-NO 0,17 h 9,0 C 11,4 km/h (2 Bft)
25.05.2016 18:00 17,8 C 19,3 C 56 % 1014,7 hPa 0,0 mm 8,8 km/h (2 Bft) N-NO 0,00 h 8,8 C 11,1 km/h (2 Bft)
25.05.2016 19:00 16,8 C 18,1 C 59 % 1014,9 hPa 0,0 mm 3,5 km/h (1 Bft) N-NO 0,17 h 8,7 C 4,3 km/h (1 Bft)
25.05.2016 20:00 15,6 C 17,0 C 62 % 1015,1 hPa 0,0 mm 2,6 km/h (1 Bft) N-NO 0,42 h 8,3 C 2,0 km/h (1 Bft)
25.05.2016 21:00 12,2 C 12,0 C 73 % 1015,3 hPa 0,0 mm 0,0 km/h (0 Bft) N 0,00 h 7,5 C 0,0 km/h (0 Bft)
25.05.2016 22:00 10,4 C 10,1 C 79 % 1015,8 hPa 0,0 mm 0,0 km/h (0 Bft) N 0,00 h 6,9 C 0,0 km/h (0 Bft)
25.05.2016 23:00 10,1 C 9,9 C 82 % 1016,2 hPa 0,0 mm 0,0 km/h (0 Bft) N 0,00 h 7,2 C 0,0 km/h (0 Bft)
26.05.2016 00:00 10,0 C 9,7 C 82 % 1016,2 hPa 0,0 mm 0,0 km/h (0 Bft) N 0,00 h 7,0 C 0,0 km/h (0 Bft)
26.05.2016 01:00 9,8 C 9,5 C 82 % 1016,0 hPa 0,0 mm 0,0 km/h (0 Bft) N 0,00 h 6,9 C 0,0 km/h (0 Bft)
26.05.2016 02:00 10,1 C 10,0 C 82 % 1016,0 hPa 0,0 mm 0,0 km/h (0 Bft) N 0,00 h 7,3 C 0,0 km/h (0 Bft)
26.05.2016 03:00 10,6 C 10,5 C 83 % 1015,8 hPa 0,0 mm 0,0 km/h (0 Bft) N 0,00 h 7,7 C 0,0 km/h (0 Bft)
26.05.2016 04:00 10,7 C 10,6 C 82 % 1015,8 hPa 0,0 mm 0,0 km/h (0 Bft) N 0,00 h 7,8 C 0,0 km/h (0 Bft)
26.05.2016 05:00 10,4 C 10,1 C 82 % 1015,9 hPa 0,0 mm 0,0 km/h (0 Bft) N 0,00 h 7,4 C 0,0 km/h (0 Bft)
26.05.2016 06:00 10,8 C 11,6 C 82 % 1016,1 hPa 0,0 mm 0,0 km/h (0 Bft) N 0,00 h 7,8 C 0,0 km/h (0 Bft)
26.05.2016 07:00 13,9 C 19,0 C 78 % 1016,5 hPa 0,0 mm 0,0 km/h (0 Bft) N 0,67 h 10,1 C 0,0 km/h (0 Bft)
26.05.2016 08:00 18,3 C 26,8 C 64 % 1017,0 hPa 0,0 mm 0,5 km/h (0 Bft) O-NO 1,05 h 11,3 C 0,9 km/h (0 Bft)
26.05.2016 09:00 19,7 C 25,8 C 54 % 1017,6 hPa 0,0 mm 4,9 km/h (1 Bft) NO 0,95 h 10,2 C 9,4 km/h (2 Bft)
26.05.2016 10:00 20,6 C 26,4 C 49 % 1018,4 hPa 0,0 mm 5,5 km/h (1 Bft) N-NO 1,00 h 9,5 C 6,2 km/h (2 Bft)
26.05.2016 11:00 21,1 C 26,1 C 49 % 1018,9 hPa 0,0 mm 7,2 km/h (2 Bft) N-NO 1,00 h 10,0 C 10,4 km/h (2 Bft)
26.05.2016 12:00 21,7 C 27,2 C 48 % 1018,8 hPa 0,0 mm 6,3 km/h (2 Bft) N-NO 1,00 h 10,2 C 9,9 km/h (2 Bft)
26.05.2016 13:00 22,0 C 26,5 C 49 % 1018,3 hPa 0,0 mm 9,0 km/h (2 Bft) NO 0,92 h 10,7 C 12,8 km/h (3 Bft)
26.05.2016 14:00 21,9 C 26,6 C 48 % 1017,7 hPa 0,0 mm 7,0 km/h (2 Bft) N-NO 0,92 h 10,3 C 7,6 km/h (2 Bft)
26.05.2016 15:00 21,6 C 24,9 C 48 % 1017,2 hPa 0,0 mm 4,8 km/h (1 Bft) NO 0,62 h 10,1 C 4,5 km/h (1 Bft)
26.05.2016 16:00 21,9 C 27,1 C 47 % 1016,7 hPa 0,0 mm 7,2 km/h (2 Bft) NO 1,00 h 10,0 C 9,8 km/h (2 Bft)
26.05.2016 17:00 21,6 C 23,4 C 47 % 1016,3 hPa 0,0 mm 5,7 km/h (1 Bft) O-NO 0,00 h 9,8 C 8,2 km/h (2 Bft)
26.05.2016 18:00 21,1 C 22,4 C 48 % 1016,1 hPa 0,0 mm 6,1 km/h (2 Bft) N-NO 0,08 h 9,5 C 8,2 km/h (2 Bft)
26.05.2016 19:00 21,2 C 25,0 C 48 % 1016,0 hPa 0,0 mm 6,5 km/h (2 Bft) N-NO 1,00 h 9,6 C 8,3 km/h (2 Bft)
26.05.2016 20:00 19,5 C 21,0 C 53 % 1016,1 hPa 0,0 mm 3,0 km/h (1 Bft) O-NO 0,42 h 9,6 C 3,4 km/h (1 Bft)
26.05.2016 21:00 16,0 C 15,7 C 64 % 1016,2 hPa 0,0 mm 0,2 km/h (0 Bft) N 0,00 h 9,1 C 0,3 km/h (0 Bft)
26.05.2016 22:00 13,5 C 13,0 C 71 % 1016,4 hPa 0,0 mm 0,0 km/h (0 Bft) N 0,00 h 8,4 C 0,0 km/h (0 Bft)
26.05.2016 23:00 12,8 C 12,7 C 75 % 1016,1 hPa 0,0 mm 0,0 km/h (0 Bft) N 0,00 h 8,5 C 0,0 km/h (0 Bft)
27.05.2016 00:00 13,3 C 13,1 C 76 % 1016,2 hPa 0,0 mm 0,0 km/h (0 Bft) N 0,00 h 9,2 C 0,0 km/h (0 Bft)
27.05.2016 01:00 12,7 C 12,3 C 76 % 1015,8 hPa 0,0 mm 0,0 km/h (0 Bft) N 0,00 h 8,6 C 0,0 km/h (0 Bft)
27.05.2016 02:00 11,1 C 10,6 C 79 % 1015,2 hPa 0,0 mm 0,3 km/h (0 Bft) S 0,00 h 7,5 C 0,5 km/h (0 Bft)
27.05.2016 03:00 10,1 C 9,6 C 80 % 1014,9 hPa 0,0 mm 0,0 km/h (0 Bft) N 0,00 h 6,8 C 0,0 km/h (0 Bft)
27.05.2016 04:00 9,4 C 9,0 C 82 % 1014,7 hPa 0,0 mm 0,0 km/h (0 Bft) N 0,00 h 6,6 C 0,0 km/h (0 Bft)
27.05.2016 05:00 9,6 C 9,3 C 84 % 1014,6 hPa 0,0 mm 0,0 km/h (0 Bft) N 0,00 h 7,0 C 0,0 km/h (0 Bft)
27.05.2016 06:00 11,0 C 11,9 C 83 % 1014,7 hPa 0,0 mm 0,0 km/h (0 Bft) N 0,00 h 8,2 C 0,0 km/h (0 Bft)
27.05.2016 07:00 13,3 C 14,9 C 80 % 1015,1 hPa 0,0 mm 0,0 km/h (0 Bft) N 0,00 h 9,9 C 0,0 km/h (0 Bft)
27.05.2016 08:00 17,6 C 23,7 C 71 % 1015,5 hPa 0,0 mm 0,5 km/h (0 Bft) W-NW 1,00 h 12,3 C 0,7 km/h (0 Bft)
27.05.2016 09:00 20,9 C 26,1 C 60 % 1016,3 hPa 0,0 mm 5,7 km/h (1 Bft) W 1,00 h 12,7 C 11,4 km/h (2 Bft)
27.05.2016 10:00 22,1 C 26,7 C 53 % 1017,3 hPa 0,0 mm 9,3 km/h (2 Bft) W-NW 0,83 h 12,0 C 15,2 km/h (3 Bft)
27.05.2016 11:00 22,6 C 26,5 C 51 % 1017,8 hPa 0,0 mm 10,4 km/h (2 Bft) W 0,75 h 12,0 C 15,5 km/h (3 Bft)
27.05.2016 12:00 23,6 C 28,1 C 50 % 1017,9 hPa 0,0 mm 9,2 km/h (2 Bft) W 0,92 h 12,4 C 11,7 km/h (2 Bft)
27.05.2016 13:00 24,2 C 29,1 C 48 % 1017,6 hPa 0,0 mm 8,7 km/h (2 Bft) W-SW 1,00 h 12,6 C 11,8 km/h (2 Bft)
27.05.2016 14:00 24,2 C 28,9 C 48 % 1017,0 hPa 0,0 mm 8,0 km/h (2 Bft) NO 1,00 h 12,4 C 9,7 km/h (2 Bft)
27.05.2016 15:00 24,5 C 29,8 C 48 % 1016,5 hPa 0,0 mm 7,4 km/h (2 Bft) W 1,00 h 12,9 C 9,0 km/h (2 Bft)
27.05.2016 16:00 24,0 C 28,4 C 49 % 1016,2 hPa 0,0 mm 6,5 km/h (2 Bft) NO 1,00 h 12,6 C 8,0 km/h (2 Bft)
27.05.2016 17:00 23,1 C 24,9 C 51 % 1016,0 hPa 0,0 mm 6,7 km/h (2 Bft) N-NO 0,00 h 12,3 C 8,0 km/h (2 Bft)
27.05.2016 18:00 22,7 C 24,1 C 53 % 1015,9 hPa 0,0 mm 7,0 km/h (2 Bft) N-NO 0,00 h 12,7 C 9,3 km/h (2 Bft)
27.05.2016 19:00 22,1 C 24,4 C 54 % 1015,9 hPa 0,0 mm 6,1 km/h (2 Bft) N-NW 0,67 h 12,3 C 8,4 km/h (2 Bft)
27.05.2016 20:00 20,2 C 21,9 C 57 % 1015,7 hPa 0,0 mm 1,4 km/h (1 Bft) S-SO 0,33 h 11,5 C 2,0 km/h (1 Bft)
27.05.2016 21:00 17,2 C 16,9 C 66 % 1016,0 hPa 0,0 mm 0,1 km/h (0 Bft) N 0,00 h 10,8 C 0,0 km/h (0 Bft)
27.05.2016 22:00 16,6 C 16,2 C 71 % 1016,8 hPa 0,7 mm 3,3 km/h (1 Bft) NO 0,00 h 11,2 C 8,7 km/h (2 Bft)
27.05.2016 23:00 14,1 C 13,5 C 78 % 1017,3 hPa 2,1 mm 2,8 km/h (1 Bft) S 0,00 h 10,2 C 0,4 km/h (0 Bft)
28.05.2016 00:00 13,2 C 13,0 C 82 % 1016,5 hPa 0,0 mm 0,0 km/h (0 Bft) N 0,00 h 10,2 C 0,0 km/h (0 Bft)
28.05.2016 01:00 13,4 C 13,2 C 84 % 1016,4 hPa 0,7 mm 0,8 km/h (0 Bft) S 0,00 h 10,7 C 2,4 km/h (1 Bft)
28.05.2016 02:00 13,5 C 13,4 C 85 % 1015,8 hPa 0,0 mm 0,0 km/h (0 Bft) N 0,00 h 11,1 C 0,0 km/h (0 Bft)
28.05.2016 03:00 13,3 C 13,1 C 85 % 1014,9 hPa 0,0 mm 0,0 km/h (0 Bft) N 0,00 h 10,8 C 0,0 km/h (0 Bft)
28.05.2016 04:00 13,0 C 12,8 C 85 % 1014,7 hPa 0,0 mm 1,3 km/h (1 Bft) W-SW 0,00 h 10,6 C 2,1 km/h (1 Bft)
28.05.2016 05:00 12,9 C 12,7 C 86 % 1014,9 hPa 0,0 mm 0,6 km/h (0 Bft) NO 0,00 h 10,6 C 0,3 km/h (0 Bft)
28.05.2016 06:00 13,4 C 13,2 C 85 % 1015,8 hPa 0,7 mm 6,1 km/h (2 Bft) S 0,00 h 11,0 C 10,0 km/h (2 Bft)
28.05.2016 07:00 13,3 C 13,0 C 83 % 1016,4 hPa 1,4 mm 3,1 km/h (1 Bft) O-NO 0,00 h 10,5 C 4,1 km/h (1 Bft)
28.05.2016 08:00 13,5 C 13,6 C 85 % 1015,7 hPa 0,7 mm 0,3 km/h (0 Bft) N 0,00 h 11,1 C 0,3 km/h (0 Bft)
28.05.2016 09:00 17,7 C 22,9 C 80 % 1014,9 hPa 0,0 mm 0,3 km/h (0 Bft) N 0,63 h 14,1 C 0,3 km/h (0 Bft)
28.05.2016 10:00 21,4 C 28,7 C 63 % 1015,8 hPa 0,0 mm 2,3 km/h (1 Bft) N-NO 1,00 h 14,0 C 2,2 km/h (1 Bft)
28.05.2016 11:00 23,2 C 28,7 C 54 % 1016,4 hPa 0,0 mm 6,0 km/h (2 Bft) O-NO 1,00 h 13,3 C 7,8 km/h (2 Bft)
28.05.2016 12:00 22,6 C 26,0 C 55 % 1016,2 hPa 0,0 mm 5,5 km/h (1 Bft) NO 0,58 h 13,2 C 6,7 km/h (2 Bft)
28.05.2016 13:00 20,9 C 22,6 C 63 % 1015,4 hPa 0,0 mm 9,1 km/h (2 Bft) N-NO 0,08 h 13,6 C 12,7 km/h (3 Bft)
28.05.2016 14:00 19,8 C 21,2 C 69 % 1014,6 hPa 0,7 mm 2,8 km/h (1 Bft) NO 0,17 h 13,9 C 3,4 km/h (1 Bft)
28.05.2016 15:00 20,6 C 23,8 C 63 % 1014,2 hPa 0,0 mm 9,0 km/h (2 Bft) N-NO 0,83 h 13,4 C 12,8 km/h (3 Bft)
28.05.2016 16:00 17,4 C 18,7 C 69 % 1014,4 hPa 0,0 mm 6,0 km/h (2 Bft) O-SO 0,17 h 11,7 C 6,1 km/h (2 Bft)
28.05.2016 17:00 18,4 C 20,3 C 70 % 1013,7 hPa 0,0 mm 2,1 km/h (1 Bft) NW 0,00 h 12,8 C 1,5 km/h (1 Bft)
28.05.2016 18:00 19,3 C 20,6 C 69 % 1013,2 hPa 0,0 mm 6,2 km/h (2 Bft) NO 0,08 h 13,3 C 8,1 km/h (2 Bft)
28.05.2016 19:00 19,5 C 22,6 C 69 % 1012,8 hPa 0,0 mm 7,9 km/h (2 Bft) N-NO 1,00 h 13,7 C 9,1 km/h (2 Bft)
28.05.2016 20:00 18,3 C 19,9 C 72 % 1012,3 hPa 0,0 mm 0,9 km/h (0 Bft) N-NO 0,50 h 13,1 C 0,7 km/h (0 Bft)
28.05.2016 21:00 15,9 C 15,3 C 78 % 1011,9 hPa 0,0 mm 0,0 km/h (0 Bft) N 0,00 h 12,1 C 0,0 km/h (0 Bft)
28.05.2016 22:00 14,1 C 13,7 C 82 % 1011,6 hPa 0,0 mm 0,0 km/h (0 Bft) N 0,00 h 11,0 C 0,0 km/h (0 Bft)
28.05.2016 23:00 13,2 C 12,9 C 84 % 1011,1 hPa 0,0 mm 0,0 km/h (0 Bft) N 0,00 h 10,5 C 0,0 km/h (0 Bft)
29.05.2016 00:00 12,8 C 12,6 C 85 % 1010,5 hPa 0,0 mm 0,2 km/h (0 Bft) S-SO 0,00 h 10,3 C 0,6 km/h (0 Bft)
29.05.2016 01:00 12,6 C 12,5 C 86 % 1009,9 hPa 0,0 mm 0,8 km/h (0 Bft) NO 0,00 h 10,3 C 1,5 km/h (1 Bft)
29.05.2016 02:00 12,9 C 12,8 C 86 % 1009,6 hPa 0,0 mm 0,5 km/h (0 Bft) O-SO 0,00 h 10,6 C 1,0 km/h (0 Bft)
29.05.2016 03:00 12,8 C 12,7 C 86 % 1009,0 hPa 0,0 mm 0,4 km/h (0 Bft) S 0,00 h 10,5 C 0,4 km/h (0 Bft)
29.05.2016 04:00 12,8 C 12,7 C 86 % 1008,8 hPa 0,0 mm 0,6 km/h (0 Bft) O-NO 0,00 h 10,6 C 1,0 km/h (0 Bft)
29.05.2016 05:00 13,7 C 13,4 C 85 % 1009,2 hPa 0,0 mm 0,3 km/h (0 Bft) N 0,00 h 11,1 C 0,6 km/h (0 Bft)
29.05.2016 06:00 14,2 C 14,4 C 84 % 1009,7 hPa 0,0 mm 0,0 km/h (0 Bft) N 0,00 h 11,4 C 0,0 km/h (0 Bft)
29.05.2016 07:00 16,3 C 18,9 C 79 % 1009,9 hPa 0,0 mm 0,7 km/h (0 Bft) W 0,50 h 12,6 C 1,9 km/h (1 Bft)
29.05.2016 08:00 18,6 C 23,5 C 71 % 1009,7 hPa 0,0 mm 2,5 km/h (1 Bft) W-SW 0,92 h 13,3 C 2,6 km/h (1 Bft)
29.05.2016 09:00 20,3 C 27,0 C 68 % 1009,7 hPa 0,0 mm 3,3 km/h (1 Bft) N-NO 1,00 h 14,1 C 6,8 km/h (2 Bft)
29.05.2016 10:00 19,9 C 23,8 C 67 % 1009,8 hPa 0,0 mm 4,0 km/h (1 Bft) W 0,92 h 13,5 C 5,8 km/h (1 Bft)
29.05.2016 11:00 19,9 C 22,7 C 66 % 1009,2 hPa 0,0 mm 4,3 km/h (1 Bft) N-NO 1,00 h 13,2 C 4,1 km/h (1 Bft)
29.05.2016 12:00 19,6 C 21,3 C 67 % 1008,5 hPa 0,0 mm 3,1 km/h (1 Bft) N 0,08 h 13,3 C 3,3 km/h (1 Bft)
29.05.2016 13:00 19,7 C 22,1 C 66 % 1007,9 hPa 0,0 mm 8,1 km/h (2 Bft) N-NO 0,50 h 13,1 C 11,0 km/h (2 Bft)
29.05.2016 14:00 21,0 C 24,9 C 63 % 1007,1 hPa 0,0 mm 13,0 km/h (3 Bft) N-NO 1,00 h 13,6 C 17,9 km/h (3 Bft)
29.05.2016 15:00 20,8 C 23,2 C 65 % 1006,5 hPa 0,0 mm 12,5 km/h (3 Bft) N-NO 0,42 h 13,8 C 15,7 km/h (3 Bft)
29.05.2016 16:00 20,4 C 21,8 C 67 % 1005,7 hPa 0,0 mm 3,9 km/h (1 Bft) NO 0,00 h 14,1 C 5,1 km/h (1 Bft)
29.05.2016 17:00 19,7 C 21,4 C 68 % 1005,4 hPa 0,7 mm 4,9 km/h (1 Bft) S 0,08 h 13,6 C 11,8 km/h (2 Bft)
29.05.2016 18:00 14,4 C 13,9 C 76 % 1006,2 hPa 0,0 mm 10,8 km/h (2 Bft) W 0,00 h 10,3 C 13,9 km/h (3 Bft)
29.05.2016 19:00 13,5 C 13,1 C 80 % 1007,5 hPa 2,1 mm 4,8 km/h (1 Bft) W-SW 0,00 h 10,1 C 7,5 km/h (2 Bft)
29.05.2016 20:00 12,9 C 12,6 C 83 % 1007,4 hPa 0,0 mm 4,5 km/h (1 Bft) W-SW 0,00 h 10,1 C 4,2 km/h (1 Bft)
29.05.2016 21:00 12,7 C 12,4 C 85 % 1006,7 hPa 0,0 mm 2,9 km/h (1 Bft) W 0,00 h 10,2 C 5,4 km/h (1 Bft)
29.05.2016 22:00 12,5 C 12,3 C 85 % 1008,0 hPa 0,7 mm 0,7 km/h (0 Bft) S-SO 0,00 h 10,1 C 1,1 km/h (0 Bft)
29.05.2016 23:00 12,0 C 11,7 C 85 % 1008,4 hPa 1,4 mm 1,0 km/h (0 Bft) W 0,00 h 9,5 C 1,7 km/h (1 Bft)
Min-Datum _ 23.05.16 23.05.16 23.05.16 29.05.16 - 29.05.16 - - 23.05.16 29.05.16
_ Min-Zeit 08:00 21:00 08:00 17:30 - 23:50 - - 08:00 23:05
Minimum _ 0,0 C 4,5 C 0 % 1005,2 hPa - 0,0 km/h (0 Bft) - - -60,0 C 0,0 km/h (0 Bft)
Max-Datum _ 27.05.16 27.05.16 25.05.16 26.05.16 24.05.16 27.05.16 - 29.05.16 29.05.16 29.05.16
_ Max-Zeit 15:45 15:50 07:00 12:00 06:00 22:55 - 17:40 17:20 17:50
Maximum _ 24,7 C 30,4 C 87 % 1018,9 hPa 3,4 mm 20,0 km/h
NO (4 Bft)
- 0,08 h 15,2 C 51,0 km/h
S (7 Bft)
Durchschnitt _ 13,3 C 15,1 C 70 % 1013,9 hPa #41,2 mm 3,5 km/h (1 Bft) N-NO #41:45 h 6,1 C 4,8 km/h (1 Bft)